Time;durP1;ratioP1;P1;durP2;ratioP2;P2;SDS_P1;SDS_P2;PMS_P1;PMS_P2;Temp;Humidity;BMP_temperature;BMP_pressure;BME280_temperature;BME280_humidity;BME280_pressure;Samples;Min_cycle;Max_cycle;Signal;HPM_P1;HPM_P2
2022/03/29 00:00:17;;;;;;;;;;;;;;;6.99;100.00;95618.66;1034708;28;20295;-70
2022/03/29 00:00:47;;;;;;;;;;;;;;;7.00;100.00;95616.84;1038719;28;19921;-69
2022/03/29 00:01:18;;;;;;;;;;;;;;;6.97;100.00;95617.31;1034731;28;19918;-71
2022/03/29 00:01:48;;;;;;;;;;;;;;;6.94;100.00;95613.41;1038563;28;20489;-68
2022/03/29 00:02:19;;;;;;;;;;;;;;;6.97;100.00;95617.31;1039039;28;19921;-70
2022/03/29 00:02:49;;;;;;;;;;;;;;;7.01;100.00;95611.41;1030469;28;19917;-70
2022/03/29 00:03:22;;;;;;;;;;;;;;;7.06;100.00;95615.88;1034819;28;19933;-72
2022/03/29 00:03:52;;;;;;;;;;;;;;;7.06;100.00;95616.66;1033934;28;19918;-69
2022/03/29 00:04:23;;;;;;;;;;;;;;;7.12;100.00;95612.31;1031076;28;19926;-70
2022/03/29 00:04:53;;;;;;;;;;;;;;;7.10;100.00;95611.75;1039000;28;19921;-70
2022/03/29 00:05:23;;;;;;;;;;;;;;;7.10;100.00;95606.53;1042910;28;19968;-71
2022/03/29 00:05:54;;;;;;;;;;;;;;;7.12;100.00;95614.13;1038691;28;20418;-71
2022/03/29 00:06:25;;;;;;;;;;;;;;;7.11;100.00;95602.09;1038589;28;19917;-72
2022/03/29 00:06:55;;;;;;;;;;;;;;;7.08;100.00;95609.38;1030368;28;20438;-71
2022/03/29 00:07:26;;;;;;;;;;;;;;;7.14;100.00;95612.03;1030644;28;19925;-72
2022/03/29 00:07:56;;;;;;;;;;;;;;;7.12;100.00;95609.69;1029975;28;19956;-71
2022/03/29 00:08:26;;;;;;;;;;;;;;;7.12;100.00;95607.09;1028903;28;19925;-69
2022/03/29 00:08:58;;;;;;;;;;;;;;;7.09;100.00;95600.53;1037312;28;19921;-70
2022/03/29 00:09:28;;;;;;;;;;;;;;;7.05;100.00;95599.44;1032675;28;19922;-69
2022/03/29 00:10:01;;;;;;;;;;;;;;;7.04;100.00;95600.47;1034057;28;19922;-70
2022/03/29 00:10:32;;;;;;;;;;;;;;;6.87;100.00;95578.84;1037318;28;20110;-70
2022/03/29 00:11:02;;;;;;;;;;;;;;;7.02;100.00;95599.91;1038222;28;20007;-70
2022/03/29 00:11:32;;;;;;;;;;;;;;;7.07;100.00;95601.78;1042742;28;20425;-71
2022/03/29 00:12:03;;;;;;;;;;;;;;;7.06;100.00;95598.41;1046142;28;20498;-71
2022/03/29 00:12:34;;;;;;;;;;;;;;;7.12;100.00;95603.69;1041906;28;20363;-72
2022/03/29 00:13:04;;;;;;;;;;;;;;;7.09;100.00;95603.13;1041673;28;19957;-72
2022/03/29 00:13:35;;;;;;;;;;;;;;;7.06;100.00;95600.22;1041459;28;19917;-69
2022/03/29 00:14:06;;;;;;;;;;;;;;;7.14;100.00;95597.16;1040343;28;19920;-69
2022/03/29 00:14:36;;;;;;;;;;;;;;;7.13;100.00;95603.44;1033610;28;19967;-69
2022/03/29 00:15:09;;;;;;;;;;;;;;;7.15;100.00;95593.56;1031235;28;19965;-69
2022/03/29 00:15:40;;;;;;;;;;;;;;;7.15;100.00;95593.56;1030587;28;19913;-69
2022/03/29 00:16:10;;;;;;;;;;;;;;;7.16;100.00;95595.13;1030813;28;19929;-70
2022/03/29 00:16:43;;;;;;;;;;;;;;;7.12;100.00;95596.66;1031166;28;19929;-69
2022/03/29 00:17:16;;;;;;;;;;;;;;;7.12;100.00;95593.25;1035598;28;20176;-70
2022/03/29 00:17:47;;;;;;;;;;;;;;;7.07;100.00;95593.97;1034584;28;20044;-68
2022/03/29 00:18:18;;;;;;;;;;;;;;;7.05;100.00;95589.00;1030878;28;20007;-70
2022/03/29 00:18:48;;;;;;;;;;;;;;;7.10;100.00;95588.25;1030952;28;19932;-69
2022/03/29 00:19:18;;;;;;;;;;;;;;;7.06;100.00;95590.56;1026482;28;20296;-69
2022/03/29 00:19:48;;;;;;;;;;;;;;;7.08;100.00;95583.31;1036318;28;20386;-70
2022/03/29 00:20:19;;;;;;;;;;;;;;;7.06;100.00;95587.19;1034651;28;19947;-69
2022/03/29 00:20:49;;;;;;;;;;;;;;;7.07;100.00;95586.13;1035840;28;20020;-68
2022/03/29 00:21:19;;;;;;;;;;;;;;;7.05;100.00;95585.63;1038815;28;19921;-69
2022/03/29 00:21:50;;;;;;;;;;;;;;;7.04;100.00;95587.44;1032761;28;19921;-69
2022/03/29 00:22:20;;;;;;;;;;;;;;;7.06;100.00;95584.56;1034607;28;20425;-69
2022/03/29 00:22:50;;;;;;;;;;;;;;;7.08;100.00;95592.97;1036225;28;19921;-70
2022/03/29 00:23:21;;;;;;;;;;;;;;;7.06;100.00;95581.97;1026369;28;19949;-69
2022/03/29 00:23:51;;;;;;;;;;;;;;;7.06;100.00;95589.78;1025818;28;19961;-68
2022/03/29 00:24:22;;;;;;;;;;;;;;;7.05;100.00;95581.19;1028573;28;19929;-70
2022/03/29 00:24:52;;;;;;;;;;;;;;;7.00;100.00;95585.53;1028055;28;19931;-69
2022/03/29 00:25:22;;;;;;;;;;;;;;;6.99;100.00;95584.75;1022772;28;19923;-70
2022/03/29 00:25:53;;;;;;;;;;;;;;;6.98;100.00;95577.19;1020560;29;19923;-71
2022/03/29 00:26:23;;;;;;;;;;;;;;;6.96;100.00;95580.03;1022694;29;19914;-70
2022/03/29 00:26:53;;;;;;;;;;;;;;;6.97;100.00;95583.41;1023012;29;19922;-70
2022/03/29 00:27:26;;;;;;;;;;;;;;;6.99;100.00;95583.97;1022618;29;19945;-70
2022/03/29 00:27:57;;;;;;;;;;;;;;;6.93;100.00;95582.31;1026130;28;20316;-71
2022/03/29 00:28:27;;;;;;;;;;;;;;;6.95;100.00;95582.88;1027097;28;20288;-69
2022/03/29 00:28:57;;;;;;;;;;;;;;;6.99;100.00;95583.97;1027470;28;20396;-70
2022/03/29 00:29:27;;;;;;;;;;;;;;;6.93;100.00;95577.91;1032164;28;19922;-68
2022/03/29 00:29:58;;;;;;;;;;;;;;;6.89;100.00;95584.63;1030394;28;19922;-71
2022/03/29 00:30:28;;;;;;;;;;;;;;;6.89;100.00;95587.25;1030665;28;19953;-67
2022/03/29 00:30:58;;;;;;;;;;;;;;;6.72;100.00;95556.00;1030650;28;19953;-69
2022/03/29 00:31:31;;;;;;;;;;;;;;;6.84;100.00;95585.38;1030632;28;19922;-71
2022/03/29 00:32:02;;;;;;;;;;;;;;;6.82;100.00;95584.81;1030591;28;20344;-70
2022/03/29 00:32:32;;;;;;;;;;;;;;;6.84;100.00;95587.16;1031035;28;20344;-70
2022/03/29 00:33:03;;;;;;;;;;;;;;;6.83;100.00;95583.78;1031373;28;19976;-69
2022/03/29 00:33:33;;;;;;;;;;;;;;;6.87;100.00;95586.69;1030200;28;19930;-70
2022/03/29 00:34:03;;;;;;;;;;;;;;;6.89;100.00;95581.25;1026433;28;20434;-68
2022/03/29 00:34:36;;;;;;;;;;;;;;;6.89;100.00;95589.06;1027036;28;19922;-69
2022/03/29 00:35:08;;;;;;;;;;;;;;;6.85;100.00;95584.34;1027388;28;19930;-69
2022/03/29 00:35:39;;;;;;;;;;;;;;;6.83;100.00;95581.16;1030760;28;19929;-70
2022/03/29 00:36:09;;;;;;;;;;;;;;;6.84;100.00;95580.16;1027674;28;19973;-71
2022/03/29 00:36:40;;;;;;;;;;;;;;;6.82;100.00;95584.81;1031272;28;19918;-70
2022/03/29 00:37:10;;;;;;;;;;;;;;;6.78;100.00;95581.13;1034972;28;19914;-69
2022/03/29 00:37:41;;;;;;;;;;;;;;;6.80;100.00;95575.66;1035458;28;19945;-67
2022/03/29 00:38:11;;;;;;;;;;;;;;;6.76;100.00;95580.56;1035144;28;19943;-69
2022/03/29 00:38:41;;;;;;;;;;;;;;;6.79;100.00;95574.88;1031095;28;19933;-69
2022/03/29 00:39:12;;;;;;;;;;;;;;;6.78;100.00;95580.34;1027532;28;20346;-71
2022/03/29 00:39:42;;;;;;;;;;;;;;;6.79;100.00;95579.28;1027010;28;19914;-71
2022/03/29 00:40:12;;;;;;;;;;;;;;;6.82;100.00;95574.38;1026995;28;19914;-69
2022/03/29 00:40:43;;;;;;;;;;;;;;;6.84;100.00;95574.13;1031296;28;19922;-69
2022/03/29 00:41:13;;;;;;;;;;;;;;;6.88;100.00;95571.84;1029651;28;19977;-71
2022/03/29 00:41:43;;;;;;;;;;;;;;;6.87;100.00;95572.88;1033313;28;19917;-70
2022/03/29 00:42:14;;;;;;;;;;;;;;;6.88;100.00;95571.84;1027076;28;19992;-70
2022/03/29 00:42:44;;;;;;;;;;;;;;;6.84;100.00;95571.53;1026920;28;20001;-70
2022/03/29 00:43:15;;;;;;;;;;;;;;;6.85;100.00;95568.69;1027037;28;20459;-69
2022/03/29 00:43:45;;;;;;;;;;;;;;;6.85;100.00;95571.28;1026976;28;20178;-70
2022/03/29 00:44:15;;;;;;;;;;;;;;;6.91;100.00;95576.56;1026083;28;20356;-70
2022/03/29 00:44:45;;;;;;;;;;;;;;;6.88;100.00;95571.84;1029525;28;20068;-69
2022/03/29 00:45:16;;;;;;;;;;;;;;;6.84;100.00;95567.13;1035117;28;20351;-69
2022/03/29 00:45:46;;;;;;;;;;;;;;;6.89;100.00;95565.59;1031356;28;19913;-69
2022/03/29 00:46:16;;;;;;;;;;;;;;;6.86;100.00;95569.47;1030947;28;19910;-69
2022/03/29 00:46:47;;;;;;;;;;;;;;;6.84;100.00;95567.13;1035316;28;19917;-70
2022/03/29 00:47:17;;;;;;;;;;;;;;;6.84;100.00;95571.53;1035554;28;19914;-70
2022/03/29 00:47:48;;;;;;;;;;;;;;;6.81;100.00;95559.78;1035215;28;19914;-69
2022/03/29 00:48:18;;;;;;;;;;;;;;;6.80;100.00;95562.63;1042337;28;19905;-69
2022/03/29 00:48:48;;;;;;;;;;;;;;;6.85;100.00;95566.06;1039348;28;19913;-69
2022/03/29 00:49:19;;;;;;;;;;;;;;;6.84;100.00;95561.91;1035331;28;19910;-69
2022/03/29 00:49:49;;;;;;;;;;;;;;;6.89;100.00;95563.00;1026942;28;20232;-69
2022/03/29 00:50:19;;;;;;;;;;;;;;;6.85;100.00;95563.47;1027174;28;19962;-69
2022/03/29 00:50:50;;;;;;;;;;;;;;;6.84;100.00;95572.34;1031005;28;20186;-71
2022/03/29 00:51:20;;;;;;;;;;;;;;;6.84;100.00;95564.50;1031160;28;19910;-70
2022/03/29 00:51:57;;;;;;;;;;;;;;;6.80;100.00;95560.00;1031021;28;19910;-70
2022/03/29 00:52:28;;;;;;;;;;;;;;;6.78;100.00;95562.09;1032057;28;19921;-69
2022/03/29 00:52:58;;;;;;;;;;;;;;;6.77;100.00;95555.28;1032095;28;20386;-68
2022/03/29 00:53:28;;;;;;;;;;;;;;;6.77;100.00;95556.09;1031062;28;20004;-69
2022/03/29 00:53:59;;;;;;;;;;;;;;;6.77;100.00;95556.09;1026745;28;19911;-70
2022/03/29 00:54:30;;;;;;;;;;;;;;;6.74;100.00;95551.34;1023140;28;19910;-71
2022/03/29 00:55:00;;;;;;;;;;;;;;;6.76;100.00;95559.69;1023057;28;19982;-70
2022/03/29 00:55:31;;;;;;;;;;;;;;;6.75;100.00;95558.13;1031464;28;20279;-70
2022/03/29 00:56:02;;;;;;;;;;;;;;;6.76;100.00;95567.53;1039457;28;20016;-69
2022/03/29 00:56:33;;;;;;;;;;;;;;;6.76;100.00;95559.69;1039183;28;19913;-69
2022/03/29 00:57:04;;;;;;;;;;;;;;;6.77;100.00;95558.69;1043560;28;20358;-69
2022/03/29 00:57:34;;;;;;;;;;;;;;;6.80;100.00;95563.41;1039207;28;19943;-70
2022/03/29 00:58:06;;;;;;;;;;;;;;;6.77;100.00;95561.28;1034940;28;19906;-68
2022/03/29 00:58:37;;;;;;;;;;;;;;;6.77;100.00;95557.88;1031157;28;20430;-71
2022/03/29 00:59:07;;;;;;;;;;;;;;;6.78;100.00;95560.25;1035469;28;19948;-69
2022/03/29 00:59:42;;;;;;;;;;;;;;;6.75;100.00;95557.34;1035784;28;19952;-69
2022/03/29 01:00:14;;;;;;;;;;;;;;;6.76;100.00;95554.47;1039055;28;19920;-69
2022/03/29 01:00:45;;;;;;;;;;;;;;;6.74;100.00;95556.56;1036084;28;19981;-70
2022/03/29 01:01:16;;;;;;;;;;;;;;;6.72;100.00;95563.84;1036114;28;20398;-70
2022/03/29 01:01:48;;;;;;;;;;;;;;;6.70;100.00;95557.28;1035158;28;19913;-70
2022/03/29 01:02:18;;;;;;;;;;;;;;;6.72;100.00;95550.78;1035846;28;19925;-70
2022/03/29 01:02:48;;;;;;;;;;;;;;;6.70;100.00;95550.22;1035526;28;19914;-69
2022/03/29 01:03:19;;;;;;;;;;;;;;;6.66;100.00;95554.38;1031131;28;19910;-71
2022/03/29 01:03:49;;;;;;;;;;;;;;;6.67;100.00;95557.75;1034796;28;19939;-68
2022/03/29 01:04:20;;;;;;;;;;;;;;;6.65;100.00;95555.41;1035021;28;20000;-70
2022/03/29 01:04:51;;;;;;;;;;;;;;;6.64;100.00;95548.63;1035522;28;20335;-70
2022/03/29 01:05:21;;;;;;;;;;;;;;;6.65;100.00;95552.78;1043156;28;20181;-70
2022/03/29 01:05:51;;;;;;;;;;;;;;;6.69;100.00;95547.88;1036734;28;20484;-69
2022/03/29 01:06:22;;;;;;;;;;;;;;;6.68;100.00;95541.88;1035411;28;19991;-70
2022/03/29 01:06:53;;;;;;;;;;;;;;;6.69;100.00;95547.88;1030959;28;19941;-69
2022/03/29 01:07:24;;;;;;;;;;;;;;;6.67;100.00;95545.50;1031125;28;19914;-69
2022/03/29 01:07:57;;;;;;;;;;;;;;;6.62;100.00;95535.03;1031029;28;19914;-69
2022/03/29 01:08:27;;;;;;;;;;;;;;;6.63;100.00;95543.63;1030847;28;19925;-68
2022/03/29 01:08:58;;;;;;;;;;;;;;;6.66;100.00;95538.72;1028395;28;19925;-70
2022/03/29 01:09:29;;;;;;;;;;;;;;;6.66;100.00;95538.72;1027035;28;20502;-71
2022/03/29 01:10:01;;;;;;;;;;;;;;;6.67;100.00;95540.28;1030483;28;19998;-68
2022/03/29 01:10:31;;;;;;;;;;;;;;;6.63;100.00;95538.41;1034113;28;20060;-71
2022/03/29 01:11:02;;;;;;;;;;;;;;;6.67;100.00;95535.06;1031864;28;19968;-70
2022/03/29 01:11:32;;;;;;;;;;;;;;;6.47;100.00;95508.75;1034904;28;19909;-70
2022/03/29 01:12:03;;;;;;;;;;;;;;;6.66;100.00;95533.50;1031086;28;19948;-69
2022/03/29 01:12:33;;;;;;;;;;;;;;;6.67;100.00;95534.28;1031374;28;20304;-69
2022/03/29 01:13:04;;;;;;;;;;;;;;;6.67;100.00;95535.06;1031174;28;19955;-70
2022/03/29 01:13:34;;;;;;;;;;;;;;;6.68;100.00;95534.06;1032505;28;19926;-70
2022/03/29 01:14:04;;;;;;;;;;;;;;;6.68;100.00;95535.88;1034471;28;20311;-69
2022/03/29 01:14:35;;;;;;;;;;;;;;;6.69;100.00;95538.25;1031203;28;20379;-69
2022/03/29 01:15:05;;;;;;;;;;;;;;;6.67;100.00;95534.28;1031124;28;19917;-70
2022/03/29 01:15:36;;;;;;;;;;;;;;;6.67;100.00;95535.06;1034857;28;19972;-69
2022/03/29 01:18:05;;;;;;;;;;;;;;;6.62;100.00;95527.22;1030083;28;19914;-69
2022/03/29 01:18:35;;;;;;;;;;;;;;;6.65;100.00;95526.72;1026661;28;19972;-70
2022/03/29 01:19:07;;;;;;;;;;;;;;;6.62;100.00;95524.59;1025494;28;19918;-69
2022/03/29 01:19:41;;;;;;;;;;;;;;;6.59;100.00;95523.25;1023954;28;19954;-70
2022/03/29 01:20:22;;;;;;;;;;;;;;;6.58;100.00;95528.72;1027838;28;20396;-70
2022/03/29 01:20:53;;;;;;;;;;;;;;;6.58;100.00;95520.91;1032451;28;19914;-69
2022/03/29 01:21:25;;;;;;;;;;;;;;;6.55;100.00;95524.78;1034567;28;19913;-71
2022/03/29 01:21:59;;;;;;;;;;;;;;;6.56;100.00;95522.97;1038827;28;19971;-70
2022/03/29 01:22:29;;;;;;;;;;;;;;;6.56;100.00;95525.56;1038244;28;19924;-71
2022/03/29 01:23:00;;;;;;;;;;;;;;;6.56;100.00;95523.75;1039303;28;19932;-70
2022/03/29 01:23:31;;;;;;;;;;;;;;;6.52;100.00;95521.88;1034550;28;20310;-72
2022/03/29 01:24:01;;;;;;;;;;;;;;;6.53;100.00;95518.22;1036556;28;19953;-71
2022/03/29 01:24:34;;;;;;;;;;;;;;;6.57;100.00;95519.31;1039074;28;20349;-70
2022/03/29 01:25:05;;;;;;;;;;;;;;;6.55;100.00;95518.78;1039724;28;20340;-70
2022/03/29 01:25:38;;;;;;;;;;;;;;;6.56;100.00;95517.75;1039071;28;19909;-70
2022/03/29 01:26:09;;;;;;;;;;;;;;;6.60;100.00;95518.81;1027651;28;19918;-70
2022/03/29 01:26:39;;;;;;;;;;;;;;;6.59;100.00;95525.09;1031389;28;20271;-72
2022/03/29 01:27:09;;;;;;;;;;;;;;;6.55;100.00;95521.38;1031212;28;19917;-70
2022/03/29 01:27:40;;;;;;;;;;;;;;;6.59;100.00;95514.66;1035785;28;19924;-70
2022/03/29 01:28:10;;;;;;;;;;;;;;;6.57;100.00;95520.13;1031167;28;19914;-70
2022/03/29 01:28:41;;;;;;;;;;;;;;;6.55;100.00;95516.19;1038502;28;20351;-70
2022/03/29 01:29:11;;;;;;;;;;;;;;;6.52;100.00;95514.06;1035288;28;20124;-70
2022/03/29 01:29:43;;;;;;;;;;;;;;;6.56;100.00;95520.34;1039338;28;20656;-70
2022/03/29 01:30:13;;;;;;;;;;;;;;;6.57;100.00;95519.31;1039000;28;20359;-70
2022/03/29 01:30:44;;;;;;;;;;;;;;;6.38;100.00;95493.56;1039262;28;19921;-70
2022/03/29 01:31:14;;;;;;;;;;;;;;;6.56;100.00;95517.75;1040059;28;20342;-70
2022/03/29 01:31:45;;;;;;;;;;;;;;;6.52;100.00;95514.06;1027038;28;20008;-70
2022/03/29 01:32:16;;;;;;;;;;;;;;;6.49;100.00;95512.72;1023173;29;19918;-70
2022/03/29 01:32:47;;;;;;;;;;;;;;;6.51;100.00;95515.09;1021107;28;20412;-71
2022/03/29 01:33:21;;;;;;;;;;;;;;;6.47;100.00;95509.56;1027633;28;19918;-70
2022/03/29 01:33:51;;;;;;;;;;;;;;;6.43;100.00;95513.66;1027383;28;20562;-71
2022/03/29 01:34:21;;;;;;;;;;;;;;;6.42;100.00;95511.31;1031446;28;19918;-71
2022/03/29 01:34:51;;;;;;;;;;;;;;;6.47;100.00;95506.16;1030948;28;20358;-70
2022/03/29 01:35:22;;;;;;;;;;;;;;;6.43;100.00;95508.47;1031031;28;20429;-71
2022/03/29 01:35:53;;;;;;;;;;;;;;;6.41;100.00;95512.34;1035689;28;19922;-70
2022/03/29 01:36:23;;;;;;;;;;;;;;;6.42;100.00;95506.88;1031164;28;19921;-72
2022/03/29 01:36:54;;;;;;;;;;;;;;;6.43;100.00;95505.84;1023437;28;20502;-71
2022/03/29 01:37:24;;;;;;;;;;;;;;;6.46;100.00;95504.59;1031338;28;19922;-70
2022/03/29 01:37:55;;;;;;;;;;;;;;;6.45;100.00;95500.41;1031480;28;19972;-70
2022/03/29 01:38:25;;;;;;;;;;;;;;;6.47;100.00;95501.75;1031308;28;19944;-71
2022/03/29 01:38:55;;;;;;;;;;;;;;;6.45;100.00;95500.41;1035217;28;19917;-70
2022/03/29 01:39:26;;;;;;;;;;;;;;;6.41;100.00;95502.72;1031067;28;19971;-70
2022/03/29 01:39:56;;;;;;;;;;;;;;;6.37;100.00;95499.81;1031190;28;20411;-70
2022/03/29 01:40:27;;;;;;;;;;;;;;;6.39;100.00;95494.34;1035502;28;19928;-70
2022/03/29 01:41:03;;;;;;;;;;;;;;;6.36;100.00;95498.22;1039273;28;19917;-69
2022/03/29 01:41:34;;;;;;;;;;;;;;;6.38;100.00;95497.97;1035255;28;19917;-70
2022/03/29 01:42:04;;;;;;;;;;;;;;;6.35;100.00;95495.84;1035171;28;19923;-69
2022/03/29 01:42:35;;;;;;;;;;;;;;;6.33;100.00;95503.91;1035181;28;20333;-70
2022/03/29 01:43:05;;;;;;;;;;;;;;;6.30;100.00;95498.38;1035169;28;19928;-70
2022/03/29 01:43:35;;;;;;;;;;;;;;;6.32;100.00;95491.91;1031117;28;20296;-70
2022/03/29 01:44:06;;;;;;;;;;;;;;;6.30;100.00;95493.97;1030214;28;19921;-70
2022/03/29 01:44:37;;;;;;;;;;;;;;;6.31;100.00;95492.94;1039891;28;19968;-70
2022/03/29 01:45:07;;;;;;;;;;;;;;;6.36;100.00;95492.22;1039055;28;19919;-70
2022/03/29 01:45:38;;;;;;;;;;;;;;;6.42;100.00;95496.47;1039089;28;19916;-70
2022/03/29 01:46:12;;;;;;;;;;;;;;;6.37;100.00;95489.38;1030974;28;20243;-70
2022/03/29 01:46:42;;;;;;;;;;;;;;;6.33;100.00;95490.09;1027921;28;19957;-71
2022/03/29 01:47:12;;;;;;;;;;;;;;;6.38;100.00;95488.34;1031033;28;20005;-70
2022/03/29 01:47:43;;;;;;;;;;;;;;;6.35;100.00;95491.44;1027422;28;19921;-69
2022/03/29 01:48:13;;;;;;;;;;;;;;;6.31;100.00;95489.56;1033734;28;19979;-70
2022/03/29 01:48:43;;;;;;;;;;;;;;;6.31;100.00;95487.72;1026849;28;19914;-70
2022/03/29 01:49:16;;;;;;;;;;;;;;;6.30;100.00;95483.53;1030860;28;19917;-70
2022/03/29 01:49:47;;;;;;;;;;;;;;;6.27;100.00;95486.66;1031243;28;20379;-70
2022/03/29 01:50:17;;;;;;;;;;;;;;;6.27;100.00;95483.22;1031724;28;19992;-70
2022/03/29 01:50:49;;;;;;;;;;;;;;;6.25;100.00;95490.53;1030927;28;19925;-70
2022/03/29 01:51:19;;;;;;;;;;;;;;;6.27;100.00;95484.03;1023142;28;20029;-70
2022/03/29 01:51:50;;;;;;;;;;;;;;;6.23;100.00;95487.34;1027081;28;19917;-71
2022/03/29 01:52:20;;;;;;;;;;;;;;;6.23;100.00;95477.72;1035191;28;20390;-69
2022/03/29 01:52:50;;;;;;;;;;;;;;;6.26;100.00;95482.44;1039239;28;19920;-70
2022/03/29 01:53:28;;;;;;;;;;;;;;;6.25;100.00;95480.88;1038998;28;19939;-70
2022/03/29 01:53:59;;;;;;;;;;;;;;;6.22;100.00;95483.97;1042022;28;20083;-71
2022/03/29 01:54:32;;;;;;;;;;;;;;;6.22;100.00;95488.41;1043516;28;19913;-70
2022/03/29 01:55:02;;;;;;;;;;;;;;;6.23;100.00;95482.94;1042657;28;19921;-70
2022/03/29 01:55:33;;;;;;;;;;;;;;;6.25;100.00;95493.13;1038171;28;19916;-70
2022/03/29 01:56:03;;;;;;;;;;;;;;;6.26;100.00;95473.84;1031138;28;19914;-70
2022/03/29 01:56:34;;;;;;;;;;;;;;;6.25;100.00;95477.50;1027404;28;20038;-70
2022/03/29 01:57:04;;;;;;;;;;;;;;;6.34;100.00;95473.44;1031274;28;19910;-70
2022/03/29 01:57:35;;;;;;;;;;;;;;;6.31;100.00;95479.13;1035771;28;19914;-69
2022/03/29 01:58:05;;;;;;;;;;;;;;;6.28;100.00;95475.19;1035342;28;19912;-69
2022/03/29 01:58:35;;;;;;;;;;;;;;;6.28;100.00;95474.41;1035361;28;19913;-69
2022/03/29 01:59:07;;;;;;;;;;;;;;;6.30;100.00;95472.31;1035424;28;19910;-71
2022/03/29 02:00:33;;;;;;;;;;;;;;;6.28;100.00;95475.19;1039844;28;19913;-69
2022/03/29 02:01:03;;;;;;;;;;;;;;;6.29;100.00;95470.75;1032448;28;19916;-69
2022/03/29 02:01:40;;;;;;;;;;;;;;;6.30;100.00;95469.72;1041697;28;20297;-70
2022/03/29 02:02:10;;;;;;;;;;;;;;;6.32;100.00;95475.50;1035791;28;20385;-70
2022/03/29 02:02:41;;;;;;;;;;;;;;;6.31;100.00;95474.72;1027705;28;19929;-69
2022/03/29 02:03:11;;;;;;;;;;;;;;;6.28;100.00;95469.97;1026872;28;19946;-68
2022/03/29 02:03:41;;;;;;;;;;;;;;;6.23;100.00;95474.31;1031833;28;19910;-70
2022/03/29 02:04:12;;;;;;;;;;;;;;;6.19;100.00;95471.41;1035046;28;20370;-70
2022/03/29 02:04:42;;;;;;;;;;;;;;;6.22;100.00;95465.72;1039854;28;20000;-69
2022/03/29 02:05:13;;;;;;;;;;;;;;;6.22;100.00;95465.72;1042672;28;19916;-69
2022/03/29 02:05:43;;;;;;;;;;;;;;;6.21;100.00;95464.16;1039735;28;20011;-70
2022/03/29 02:06:13;;;;;;;;;;;;;;;6.23;100.00;95467.28;1044354;28;19924;-69
2022/03/29 02:06:44;;;;;;;;;;;;;;;6.29;100.00;95468.94;1046889;28;19920;-70
2022/03/29 02:07:16;;;;;;;;;;;;;;;6.29;100.00;95468.16;1039841;28;20336;-70
2022/03/29 02:07:47;;;;;;;;;;;;;;;6.28;100.00;95459.56;1039959;28;19913;-69
2022/03/29 02:08:17;;;;;;;;;;;;;;;6.30;100.00;95465.28;1035291;28;19914;-68
2022/03/29 02:08:47;;;;;;;;;;;;;;;6.32;100.00;95458.03;1035767;28;20414;-69
2022/03/29 02:09:17;;;;;;;;;;;;;;;6.28;100.00;95464.78;1027857;28;19914;-68
2022/03/29 02:09:48;;;;;;;;;;;;;;;6.30;100.00;95461.91;1027456;28;19946;-68
2022/03/29 02:10:19;;;;;;;;;;;;;;;6.28;100.00;95464.78;1034348;28;19913;-71
2022/03/29 02:10:49;;;;;;;;;;;;;;;6.32;100.00;95462.47;1035961;28;19924;-70
2022/03/29 02:11:19;;;;;;;;;;;;;;;6.27;100.00;95462.38;1040099;28;19909;-70
2022/03/29 02:11:50;;;;;;;;;;;;;;;6.29;100.00;95457.72;1043715;28;20371;-70
2022/03/29 02:12:21;;;;;;;;;;;;;;;6.30;100.00;95461.91;1039689;28;19952;-70
2022/03/29 02:12:54;;;;;;;;;;;;;;;6.29;100.00;95462.94;1035793;28;19913;-69
2022/03/29 02:13:25;;;;;;;;;;;;;;;6.29;100.00;95465.56;1040290;28;20283;-72
2022/03/29 02:13:55;;;;;;;;;;;;;;;6.25;100.00;95464.47;1043235;28;19924;-69
2022/03/29 02:14:26;;;;;;;;;;;;;;;6.28;100.00;95464.78;1035483;28;20064;-70
2022/03/29 02:14:56;;;;;;;;;;;;;;;6.32;100.00;95457.25;1040010;28;19913;-71
2022/03/29 02:15:26;;;;;;;;;;;;;;;6.33;100.00;95457.00;1035569;28;19929;-70
2022/03/29 02:15:57;;;;;;;;;;;;;;;6.33;100.00;95457.00;1035897;28;19909;-69
2022/03/29 02:16:27;;;;;;;;;;;;;;;6.32;100.00;95460.66;1039934;28;19913;-70
2022/03/29 02:16:57;;;;;;;;;;;;;;;6.28;100.00;95464.78;1031662;28;19910;-69
2022/03/29 02:17:28;;;;;;;;;;;;;;;6.26;100.00;95459.00;1039803;28;19909;-67
2022/03/29 02:17:58;;;;;;;;;;;;;;;6.29;100.00;95455.13;1031583;28;20215;-71
2022/03/29 02:18:28;;;;;;;;;;;;;;;6.27;100.00;95458.00;1035658;28;19917;-68
2022/03/29 02:18:59;;;;;;;;;;;;;;;6.29;100.00;95457.72;1035662;28;19910;-69
2022/03/29 02:19:29;;;;;;;;;;;;;;;6.28;100.00;95454.34;1027847;28;20389;-70
2022/03/29 02:19:59;;;;;;;;;;;;;;;6.29;100.00;95458.53;1039813;28;19925;-69
2022/03/29 02:20:30;;;;;;;;;;;;;;;6.29;100.00;95455.13;1039901;28;19913;-70
2022/03/29 02:21:00;;;;;;;;;;;;;;;6.26;100.00;95450.41;1042621;28;19917;-69
2022/03/29 02:21:34;;;;;;;;;;;;;;;6.25;100.00;95454.03;1039830;28;20405;-71
2022/03/29 02:22:04;;;;;;;;;;;;;;;6.23;100.00;95450.88;1035655;28;20390;-70
2022/03/29 02:22:35;;;;;;;;;;;;;;;6.19;100.00;95450.56;1035961;28;20020;-69
2022/03/29 02:23:08;;;;;;;;;;;;;;;6.14;100.00;95447.91;1032374;28;19932;-70
2022/03/29 02:23:38;;;;;;;;;;;;;;;6.15;100.00;95444.28;1036166;28;19913;-70
2022/03/29 02:24:09;;;;;;;;;;;;;;;6.16;100.00;95451.06;1034603;28;19921;-70
2022/03/29 02:24:39;;;;;;;;;;;;;;;6.18;100.00;95443.81;1032653;28;20515;-69
2022/03/29 02:25:12;;;;;;;;;;;;;;;6.20;100.00;95446.94;1036092;28;19910;-70
2022/03/29 02:25:46;;;;;;;;;;;;;;;6.25;100.00;95452.22;1040396;28;19916;-70
2022/03/29 02:26:19;;;;;;;;;;;;;;;6.26;100.00;95445.19;1032376;28;20264;-70
2022/03/29 02:26:49;;;;;;;;;;;;;;;6.21;100.00;95445.94;1035845;28;19949;-69
2022/03/29 02:27:19;;;;;;;;;;;;;;;6.20;100.00;95449.53;1035763;28;19933;-70
2022/03/29 02:27:50;;;;;;;;;;;;;;;6.22;100.00;95447.50;1038951;28;19909;-70
2022/03/29 02:28:21;;;;;;;;;;;;;;;6.20;100.00;95449.53;1039778;28;19908;-70
2022/03/29 02:28:51;;;;;;;;;;;;;;;6.23;100.00;95449.06;1035691;28;19916;-69
2022/03/29 02:29:21;;;;;;;;;;;;;;;6.22;100.00;95441.50;1034003;28;19930;-69
2022/03/29 02:29:52;;;;;;;;;;;;;;;6.20;100.00;95444.31;1035728;28;19987;-69
2022/03/29 02:30:22;;;;;;;;;;;;;;;6.19;100.00;95441.97;1031608;28;19917;-70
2022/03/29 02:30:53;;;;;;;;;;;;;;;6.22;100.00;95444.09;1031716;28;19918;-70
2022/03/29 02:31:23;;;;;;;;;;;;;;;6.21;100.00;95445.13;1031688;28;19913;-69
2022/03/29 02:31:53;;;;;;;;;;;;;;;6.20;100.00;95441.72;1031746;28;20651;-70
2022/03/29 02:32:23;;;;;;;;;;;;;;;6.16;100.00;95439.84;1031776;28;19910;-70
2022/03/29 02:32:54;;;;;;;;;;;;;;;6.14;100.00;95437.50;1036759;28;19921;-69
2022/03/29 02:33:24;;;;;;;;;;;;;;;6.13;100.00;95441.13;1043992;28;19913;-70
2022/03/29 02:33:54;;;;;;;;;;;;;;;6.09;100.00;95438.22;1035148;28;19933;-69
2022/03/29 02:34:25;;;;;;;;;;;;;;;6.18;100.00;95438.59;1034089;28;19905;-69
2022/03/29 02:34:56;;;;;;;;;;;;;;;6.12;100.00;95434.34;1035575;28;20590;-70
2022/03/29 02:35:26;;;;;;;;;;;;;;;6.19;100.00;95440.16;1031844;28;19906;-70
2022/03/29 02:35:56;;;;;;;;;;;;;;;6.23;100.00;95435.25;1035665;28;19921;-70
2022/03/29 02:36:27;;;;;;;;;;;;;;;6.20;100.00;95435.72;1043838;28;19916;-70
2022/03/29 02:36:58;;;;;;;;;;;;;;;6.20;100.00;95427.91;1039785;28;19914;-69
2022/03/29 02:37:28;;;;;;;;;;;;;;;6.20;100.00;95435.72;1035548;28;19912;-68
2022/03/29 02:37:59;;;;;;;;;;;;;;;6.15;100.00;95428.66;1039620;28;20316;-71
2022/03/29 02:38:29;;;;;;;;;;;;;;;6.14;100.00;95429.69;1039609;28;19936;-70
2022/03/29 02:38:59;;;;;;;;;;;;;;;6.17;100.00;95437.03;1035660;28;20011;-70
2022/03/29 02:39:29;;;;;;;;;;;;;;;6.15;100.00;95433.84;1035688;28;19910;-69
2022/03/29 02:40:00;;;;;;;;;;;;;;;6.17;100.00;95431.81;1039868;28;19917;-69
2022/03/29 02:40:31;;;;;;;;;;;;;;;6.19;100.00;95440.16;1039781;28;20455;-72
2022/03/29 02:41:01;;;;;;;;;;;;;;;6.16;100.00;95440.63;1043775;28;19909;-70
2022/03/29 02:41:31;;;;;;;;;;;;;;;6.18;100.00;95430.78;1043662;28;19936;-70
2022/03/29 02:42:06;;;;;;;;;;;;;;;6.17;100.00;95431.81;1044118;28;19913;-69
2022/03/29 02:42:39;;;;;;;;;;;;;;;6.15;100.00;95431.25;1040197;28;19905;-70
2022/03/29 02:43:10;;;;;;;;;;;;;;;6.17;100.00;95437.03;1040635;28;20413;-69
2022/03/29 02:43:40;;;;;;;;;;;;;;;6.16;100.00;95435.44;1043929;28;19909;-69